EGFF/CWL METAR and TAF weather

Enter ICAO airport designator
Station Type Date Time Source
EGFF METAR 2020/07/11 01:20 UTC NOAA

EGFF 110120Z AUTO 33007KT 9999 NCD 10/07 Q1025


Station Type Date Time Source
EGFF Decoded METAR 2020/07/11 01:20 UTC NOAA

Cardiff-Wales Airport, United Kingdom (EGFF) 51-24N 003-21W 0M
Jul 10, 2020 - 09:20 PM EDT / 2020.07.11 0120 UTC
Wind: from the NNW (330 degrees) at 8 MPH (7 KT):0
Visibility: greater than 7 mile(s):0
Temperature: 50 F (10 C)
Dew Point: 44 F (7 C)
Relative Humidity: 81%
Pressure (altimeter): 30.27 in. Hg (1025 hPa)
ob: EGFF 110120Z AUTO 33007KT 9999 NCD 10/07 Q1025
cycle: 1

Station Type Date Time Source
EGFF TAF 2020/07/10 18:09 UTC NOAA

TAF EGFF 101655Z 1018/1118 30012KT 9999 SCT030

Example: see airport list